Flood watches and warnings may be in place at some locations. For the latest rainfall, river conditions, flood watches and warnings see BoM.

Scroll for more >

River gauges, storages, and weirs in the Murray–Darling Basin

Type Locationsort descending River Water level Flow Volume Release Water temp Salinity Rainfall
River Gauge Albury (Union Bridge) Murray 1.42 m 30/08/2016 12:00 Not measured Not measured Not measured 10.6°C 30/08/2016 12:00 52.0 μS/cm 30/08/2016 12:00 Not measured Full data
River Gauge Balranald Murrumbidgee 5.11 m 30/08/2016 12:00 7130 ML/Day 30/08/2016 12:00 Not measured Not measured 12.0°C 30/08/2016 12:00 240.8 μS/cm 30/08/2016 12:00 Not measured Full data
River Gauge Bandiana Kiewa 2.45 m 30/08/2016 12:00 2851 ML/Day 30/08/2016 12:00 Not measured Not measured 10.0°C 30/08/2016 12:00 44.0 μS/cm 30/08/2016 12:00 Not measured Full data
River Gauge Biggara Murray 0.92 m 30/08/2016 12:00 1608 ML/Day 30/08/2016 12:00 Not measured Not measured 8.1°C 30/08/2016 12:00 30.3 μS/cm 30/08/2016 12:00 0.0 mm 30/08/2016 9:00 Full data
River Gauge Bringenbrong Bridge Murray 2.47 m 30/08/2016 11:00 11467 ML/Day 30/08/2016 11:00 Not measured Not measured Not measured Not measured Not measured Full data
River Gauge Burtundy Darling 0.76 m 30/08/2016 11:00 219 ML/Day 30/08/2016 11:00 Not measured Not measured 13.6°C 30/08/2016 12:00 1053.5 μS/cm 30/08/2016 12:00 Not measured Full data
River Gauge Colemans Mitta 0.9 m 30/08/2016 12:00 170 ML/Day 30/08/2016 12:00 Not measured Not measured 9.8°C 30/08/2016 12:00 47.1 μS/cm 30/08/2016 12:00 Not measured Full data
River Gauge Colignan Murray 5.19 m 30/08/2016 11:00 36115 ML/Day 30/08/2016 11:00 Not measured Not measured 12.5°C 30/08/2016 11:00 101.0 μS/cm 30/08/2016 11:00 Not measured Full data
River Gauge Corowa Murray 1.5 m 30/08/2016 11:00 5295 ML/Day 30/08/2016 11:00 Not measured Not measured 10.9°C 30/08/2016 11:00 50.2 μS/cm 30/08/2016 11:00 Not measured Full data
Storage Dartmouth Dam Mitta 456.4 m 30/08/2016 12:00 Not measured 2202 GL 30/08/2016 12:00 Not measured Not measured Not measured Not measured Full data
River Gauge Doctors Point Murray 2.42 m 30/08/2016 11:00 8243 ML/Day 30/08/2016 12:00 Not measured Not measured 10.9°C 30/08/2016 11:00 56.2 μS/cm 30/08/2016 11:00 Not measured Full data
River Gauge Echuca Wharf Murray 88.35 m 30/08/2016 7:00 Not measured Not measured Not measured Not measured Not measured Not measured Full data
River Gauge Edward Escape Wakool 0.06 m 30/08/2016 8:00 10 ML/Day 30/08/2016 8:00 Not measured Not measured 13.1°C 30/08/2016 8:00 62.1 μS/cm 30/08/2016 8:00 Not measured Full data
River Gauge Edward River Offtake Murray 2.63 m 30/08/2016 12:00 1930 ML/Day 30/08/2016 12:00 Not measured Not measured 12.2°C 30/08/2016 12:00 43.0 μS/cm 30/08/2016 12:00 Not measured Full data
Weirs Euston Weir Downstream Murray 46.72 m 30/08/2016 12:00 37110 ML/Day 30/08/2016 12:00 Not measured Not measured 11.9°C 30/08/2016 12:00 117.8 μS/cm 30/08/2016 12:00 Not measured Full data
Weirs Euston Weir Upstream Murray 47.3 m 30/08/2016 7:00 Not measured 33 GL 30/08/2016 7:00 Not measured Not measured Not measured 0.0 mm 29/08/2016 9:00 Full data
River Gauge Flow to South Australia Murray Not measured Not measured Not measured 27766.9 ML/d30/08/2016 7:00 Not measured Not measured Not measured Full data
River Gauge Frenchman Creek Murray 27.65 m 30/08/2016 7:00 Not measured Not measured 4974.0 ML/d30/08/2016 7:00 Not measured Not measured Not measured Full data
River Gauge Gulpa Creek Offtake Murray 3.02 m 30/08/2016 12:00 669 ML/Day 30/08/2016 12:00 Not measured Not measured Not measured Not measured Not measured Full data
River Gauge Hinnomunjie Mitta 1.03 m 30/08/2016 11:00 1391 ML/Day 30/08/2016 11:00 Not measured Not measured 6.2°C 30/08/2016 11:00 63.5 μS/cm 30/08/2016 11:00 0.0 mm 30/08/2016 9:00 Full data
Storage Hume Dam Murray 190.51 m 30/08/2016 12:00 Not measured 2713 GL 30/08/2016 12:00 3717 ML/d30/08/2016 9:00 Not measured Not measured 0.0 mm 30/08/2016 9:00 Full data
River Gauge Jingellic Murray 2.79 m 30/08/2016 12:00 14657 ML/Day 30/08/2016 12:00 Not measured Not measured 9.5°C 30/08/2016 12:00 35.0 μS/cm 30/08/2016 12:00 0.0 mm 30/08/2016 9:00 Full data
River Gauge Kerang Loddon 0.42 m 30/08/2016 12:00 283 ML/Day 30/08/2016 12:00 Not measured Not measured 13.0°C 30/08/2016 12:00 202.2 μS/cm 30/08/2016 12:00 Not measured Full data
River Gauge Lake Albert Murray 0.9 m 30/08/2016 5:00 Not measured Not measured Not measured Not measured Not measured Not measured Full data
River Gauge Lake Alexandrina Murray 0.86 m 30/08/2016 5:00 Not measured Not measured Not measured Not measured Not measured Not measured Full data
Storage Lake Victoria Murray 26.14 m 30/08/2016 11:00 Not measured 575 GL 30/08/2016 11:00 Not measured 12.8°C 30/08/2016 11:00 139.5 μS/cm 30/08/2016 11:00 Not measured Full data
Weirs Lock 1 Downstream Murray 1.78 m 30/08/2016 11:00 Not measured Not measured 25158.7 ML/d30/08/2016 7:00 Not measured Not measured Not measured Full data
Weirs Lock 1 Upstream Murray 3.11 m 30/08/2016 11:00 Not measured Not measured Not measured 13.8°C 30/08/2016 11:00 193.1 μS/cm 30/08/2016 11:00 Not measured Full data
Weirs Lock 2 Downstream Murray 4.88 m 30/08/2016 11:00 Not measured Not measured Not measured Not measured Not measured Not measured Full data
Weirs Lock 2 Upstream Murray 6.52 m 30/08/2016 11:00 Not measured Not measured Not measured 13.5°C 30/08/2016 11:00 198.9 μS/cm 30/08/2016 11:00 Not measured Full data
Weirs Lock 3 Downstream Murray 7.85 m 30/08/2016 11:00 Not measured Not measured Not measured Not measured Not measured Not measured Full data
Weirs Lock 3 Upstream Murray 9.81 m 30/08/2016 12:00 Not measured Not measured Not measured Not measured Not measured Not measured Full data
Weirs Lock 4 Downstream Murray 12.1 m 30/08/2016 11:00 Not measured Not measured Not measured Not measured Not measured Not measured Full data
Weirs Lock 4 Upstream Murray 13.29 m 30/08/2016 11:00 Not measured Not measured Not measured Not measured Not measured Not measured Full data
Weirs Lock 5 Downstream Murray 14.58 m 30/08/2016 11:00 Not measured Not measured Not measured Not measured Not measured Not measured Full data
Weirs Lock 5 Upstream Murray 16.77 m 30/08/2016 11:00 Not measured Not measured Not measured 13.2°C 30/08/2016 11:00 148.1 μS/cm 30/08/2016 11:00 Not measured Full data
Weirs Lock 6 Downstream Murray 17.97 m 30/08/2016 11:00 Not measured Not measured Not measured Not measured Not measured Not measured Full data
Weirs Lock 6 Upstream Murray 19.52 m 30/08/2016 12:00 Not measured Not measured Not measured 12.8°C 30/08/2016 11:00 127.7 μS/cm 30/08/2016 11:00 Not measured Full data
Weirs Lock 7 Downstream Murray 22.81 m 30/08/2016 11:00 Not measured Not measured Not measured Not measured Not measured Not measured Full data
Weirs Lock 7 Upstream Murray 22.82 m 30/08/2016 11:00 Not measured Not measured Not measured 12.9°C 30/08/2016 11:00 116.3 μS/cm 30/08/2016 11:00 Not measured Full data
Weirs Lock 8 Upstream Murray 25.16 m 30/08/2016 11:00 Not measured Not measured Not measured 12.9°C 30/08/2016 11:00 119.2 μS/cm 30/08/2016 11:00 Not measured Full data
Weirs Lock 9 Downstream Murray 26.15 m 30/08/2016 11:00 Not measured Not measured Not measured Not measured Not measured Not measured Full data
Weirs Lock 9 Upstream Murray 27.53 m 30/08/2016 7:00 Not measured Not measured Not measured 12.8°C 30/08/2016 12:00 119.1 μS/cm 30/08/2016 11:00 Not measured Full data
River Gauge McCoy Bridge Goulburn 3.59 m 30/08/2016 12:00 5098 ML/Day 30/08/2016 12:00 Not measured Not measured 11.4°C 30/08/2016 12:00 142.8 μS/cm 30/08/2016 12:00 Not measured Full data
Storage Menindee Lakes Darling Not measured Not measured 211 GL 30/08/2016 8:00 Not measured Not measured Not measured Not measured Full data
Weirs Mildura Weir downstream Murray 32.7 m 30/08/2016 11:00 Not measured Not measured Not measured 12.6°C 30/08/2016 11:00 106.2 μS/cm 30/08/2016 11:00 Not measured Full data
River Gauge Morgan Downstream Murray Not measured Not measured Not measured 21933.8 ML/d30/08/2016 11:00 Not measured Not measured Not measured Full data
River Gauge Mulwala Canal Murray Not measured Not measured Not measured 412.6 ML/d30/08/2016 7:00 Not measured Not measured Not measured Full data
River Gauge Mundoo Barrage Murray 0.88 m 30/08/2016 7:00 Not measured Not measured Not measured Not measured Not measured Not measured Full data
River Gauge Murray Bridge Murray 0.8 m 30/08/2016 11:00 Not measured Not measured Not measured 13.5°C 30/08/2016 11:00 236.7 μS/cm 30/08/2016 11:00 Not measured Full data
River Gauge Peechelba Ovens 129.38 m 30/08/2016 11:00 9676 ML/Day 30/08/2016 11:00 Not measured Not measured 10.6°C 30/08/2016 11:00 88.6 μS/cm 30/08/2016 11:00 Not measured Full data
River Gauge Pinegrove Murray 1.85 m 30/08/2016 11:00 1304 ML/Day 30/08/2016 11:00 Not measured Not measured 9.2°C 30/08/2016 12:00 194.0 μS/cm 30/08/2016 12:00 0.0 mm 30/08/2016 9:00 Full data
River Gauge Rochester Campaspe 1.72 m 30/08/2016 12:00 84 ML/Day 30/08/2016 12:00 Not measured Not measured 11.3°C 30/08/2016 12:00 461.7 μS/cm 30/08/2016 12:00 0.4 mm 30/08/2016 9:00 Full data
River Gauge Rufus River Murray 22.9 m 30/08/2016 7:00 Not measured Not measured 503.0 ML/d30/08/2016 7:00 Not measured 143.7 μS/cm 30/08/2016 11:00 Not measured Full data
Weirs Steven's Weir Downstream Wakool 2.83 m 30/08/2016 12:00 3466 ML/Day 30/08/2016 12:00 Not measured Not measured 11.7°C 30/08/2016 11:00 58.8 μS/cm 30/08/2016 11:00 0.0 mm 28/08/2016 9:00 Full data
Weirs Steven's Weir Upstream Wakool 4.57 m 30/08/2016 12:00 Not measured Not measured Not measured Not measured Not measured Not measured Full data
River Gauge Stoney Crossing Murray 3.71 m 30/08/2016 11:00 Not measured Not measured 5727.1 ML/d29/08/2016 7:00 12.4°C 30/08/2016 11:00 76.2 μS/cm 30/08/2016 11:00 Not measured Full data
River Gauge Swan Hill Murray 3.33 m 30/08/2016 11:00 20206 ML/Day 30/08/2016 11:00 Not measured Not measured 12.4°C 30/08/2016 11:00 92.9 μS/cm 30/08/2016 11:00 Not measured Full data
River Gauge Tallandoon Mitta 1.89 m 30/08/2016 11:00 1947 ML/Day 30/08/2016 11:00 Not measured Not measured 10.0°C 30/08/2016 11:00 54.9 μS/cm 30/08/2016 11:00 Not measured Full data
River Gauge Tauwitchere Barrage Murray 0.9 m 30/08/2016 11:00 Not measured Not measured Not measured Not measured Not measured Not measured Full data
River Gauge Tocumwal Murray 3.29 m 30/08/2016 11:00 19161 ML/Day 30/08/2016 11:00 Not measured Not measured 12.0°C 30/08/2016 11:00 53.0 μS/cm 30/08/2016 11:00 Not measured Full data
River Gauge Torrumbarry Headworks Murray 84.56 m 30/08/2016 12:00 Not measured Not measured 1100.2 ML/d30/08/2016 12:00 Not measured Not measured Not measured Full data
Weirs Torrumbarry Weir Downstream Murray 4.64 m 30/08/2016 12:00 17044 ML/Day 30/08/2016 12:00 Not measured Not measured 11.6°C 30/08/2016 12:00 84.2 μS/cm 30/08/2016 12:00 Not measured Full data
Weirs Torrumbarry Weir Upstream Murray 85.92 m 30/08/2016 8:00 Not measured 36 GL 30/08/2016 8:00 Not measured 11.6°C 30/08/2016 8:00 84.0 μS/cm 30/08/2016 8:00 0.0 mm 30/08/2016 9:00 Full data
River Gauge Wakool Canal Wakool 0.6 m 30/08/2016 12:00 Not measured Not measured 292.7 ML/d30/08/2016 8:00 Not measured Not measured Not measured Full data
River Gauge Wakool Junction Murray 6.96 m 30/08/2016 11:00 31563 ML/Day 30/08/2016 11:00 Not measured Not measured 11.9°C 30/08/2016 11:00 81.1 μS/cm 30/08/2016 11:00 Not measured Full data
River Gauge Weir 32 Upstream Darling 1.53 m 30/08/2016 11:00 457 ML/Day 30/08/2016 11:00 Not measured Not measured 13.1°C 30/08/2016 12:00 676.2 μS/cm 30/08/2016 12:00 Not measured Full data
Weirs Wentworth Weir Murray 29.58 m 30/08/2016 11:00 Not measured Not measured 33138.0 ML/d30/08/2016 7:00 Not measured 115.1 μS/cm 30/08/2016 7:00 0.0 mm 29/08/2016 9:00 Full data
River Gauge Wilcania Darling 3.62 m 30/08/2016 12:00 6583 ML/Day 30/08/2016 12:00 Not measured Not measured 13.8°C 30/08/2016 12:00 181.1 μS/cm 30/08/2016 11:00 Not measured Full data
River Gauge Yarrawonga Main Channel Murray 122.94 m 30/08/2016 12:00 Not measured Not measured 3.6 ML/d30/08/2016 12:00 Not measured Not measured Not measured Full data
Weirs Yarrawonga Weir Downstream Murray 2.65 m 30/08/2016 12:00 18482 ML/Day 30/08/2016 12:00 Not measured Not measured 11.9°C 30/08/2016 12:00 52.3 μS/cm 30/08/2016 12:00 Not measured Full data
Weirs Yarrawonga Weir Upstream Murray 124.79 m 30/08/2016 12:00 Not measured Not measured Not measured Not measured Not measured 0.0 mm 30/08/2016 9:00 Full data